createdAt,value
2023-01-13T00:01:17.483Z,96504.63
2023-01-13T00:03:46.403Z,96491.41
2023-01-13T00:06:15.964Z,96479.00
2023-01-13T00:08:43.768Z,96483.50
2023-01-13T00:11:12.062Z,96477.53
2023-01-13T00:13:41.150Z,96456.78
2023-01-13T00:16:12.283Z,96450.06
2023-01-13T00:18:40.000Z,96426.25
2023-01-13T00:21:09.612Z,96426.19
2023-01-13T00:23:37.724Z,96413.16
2023-01-13T00:26:07.897Z,96423.81
2023-01-13T00:28:35.784Z,96422.63
2023-01-13T00:31:08.199Z,96416.34
2023-01-13T00:33:36.702Z,96428.56
2023-01-13T00:36:06.374Z,96425.66
2023-01-13T00:38:35.763Z,96425.25
2023-01-13T00:41:05.242Z,96413.50
2023-01-13T00:43:33.761Z,96433.06
2023-01-13T00:46:02.041Z,96430.13
2023-01-13T00:48:32.695Z,96433.88
2023-01-13T00:51:01.979Z,96428.22
2023-01-13T00:53:30.578Z,96429.50
2023-01-13T00:56:01.969Z,96430.00
2023-01-13T00:58:33.107Z,96419.34
2023-01-13T01:01:01.611Z,96409.31
2023-01-13T01:03:31.292Z,96415.13
2023-01-13T01:06:04.641Z,96419.06
2023-01-13T01:08:32.439Z,96428.06
2023-01-13T01:11:07.978Z,96422.00
2023-01-13T01:13:36.407Z,96414.38
2023-01-13T01:16:07.239Z,96420.53
2023-01-13T01:18:37.528Z,96427.34
2023-01-13T01:21:06.445Z,96435.34
2023-01-13T01:23:35.130Z,96434.03
2023-01-13T01:26:03.835Z,96437.34
2023-01-13T01:28:32.036Z,96440.22
2023-01-13T01:30:59.969Z,96431.50
2023-01-13T01:33:28.079Z,96432.97
2023-01-13T01:35:57.519Z,96434.53
2023-01-13T01:38:25.267Z,96439.41
2023-01-13T01:40:53.051Z,96432.50
2023-01-13T01:43:40.153Z,96413.97
2023-01-13T01:46:08.199Z,96424.13
2023-01-13T01:48:41.879Z,96420.13
2023-01-13T01:51:14.322Z,96414.38
2023-01-13T01:53:42.883Z,96405.34
2023-01-13T01:56:12.159Z,96400.97
2023-01-13T01:58:45.713Z,96398.59
2023-01-13T02:01:14.304Z,96399.50
2023-01-13T02:03:46.283Z,96401.09
2023-01-13T02:06:17.154Z,96412.41
2023-01-13T02:08:45.279Z,96417.28
2023-01-13T02:11:42.688Z,96422.72
2023-01-13T02:14:10.524Z,96414.53
2023-01-13T02:16:41.881Z,96412.75
2023-01-13T02:19:29.926Z,96413.56
2023-01-13T02:22:20.163Z,96404.41
2023-01-13T02:25:06.196Z,96410.31
2023-01-13T02:27:53.825Z,96398.19
2023-01-13T02:31:01.177Z,96407.66
2023-01-13T02:33:59.690Z,96412.25
2023-01-13T02:36:36.120Z,96420.09
2023-01-13T02:39:11.185Z,96414.38
2023-01-13T02:42:01.596Z,96411.81
2023-01-13T02:44:34.961Z,96398.84
2023-01-13T02:47:10.419Z,96408.00
2023-01-13T02:49:45.086Z,96400.84
2023-01-13T02:52:17.103Z,96399.00
2023-01-13T02:54:49.363Z,96407.16
2023-01-13T02:57:19.388Z,96401.72
2023-01-13T02:59:48.933Z,96401.44
2023-01-13T03:02:21.382Z,96404.63
2023-01-13T03:04:57.735Z,96391.34
2023-01-13T03:07:58.372Z,96396.97
2023-01-13T03:10:48.931Z,96391.72
2023-01-13T03:13:32.105Z,96388.69
2023-01-13T03:16:09.941Z,96385.78
2023-01-13T03:18:46.521Z,96384.84
2023-01-13T03:21:21.438Z,96378.34
2023-01-13T03:23:52.822Z,96388.75
2023-01-13T03:26:27.713Z,96389.75
2023-01-13T03:29:00.106Z,96385.88
2023-01-13T03:31:33.238Z,96385.28
2023-01-13T03:34:08.681Z,96389.63
2023-01-13T03:36:40.050Z,96383.44
2023-01-13T03:39:13.340Z,96378.34
2023-01-13T03:41:47.503Z,96363.50
2023-01-13T03:44:23.557Z,96363.94
2023-01-13T03:47:00.461Z,96364.59
2023-01-13T03:49:37.607Z,96366.16
2023-01-13T03:52:10.987Z,96378.06
2023-01-13T03:54:46.467Z,96379.06
2023-01-13T03:57:19.065Z,96378.34
2023-01-13T03:59:52.071Z,96385.50
2023-01-13T04:02:26.816Z,96382.47
2023-01-13T04:04:59.909Z,96377.56
2023-01-13T04:07:38.944Z,96375.34
2023-01-13T04:10:09.773Z,96374.03
2023-01-13T04:12:59.248Z,96371.13
2023-01-13T04:15:29.204Z,96361.97
2023-01-13T04:18:03.603Z,96366.50
2023-01-13T04:20:33.182Z,96357.13
2023-01-13T04:23:01.106Z,96347.47
2023-01-13T04:25:28.919Z,96332.22
2023-01-13T04:27:56.724Z,96350.13
2023-01-13T04:30:24.631Z,96355.00
2023-01-13T04:32:52.578Z,96353.00
2023-01-13T04:35:20.396Z,96351.91
2023-01-13T04:37:49.557Z,96338.06
2023-01-13T04:40:17.892Z,96344.38
2023-01-13T04:42:45.697Z,96350.06
2023-01-13T04:45:14.143Z,96340.97
2023-01-13T04:47:42.875Z,96336.44
2023-01-13T04:50:12.470Z,96340.13
2023-01-13T04:52:40.560Z,96344.75
2023-01-13T04:55:11.427Z,96348.72
2023-01-13T04:57:39.300Z,96359.25
2023-01-13T05:00:08.746Z,96356.59
2023-01-13T05:02:36.495Z,96360.41
2023-01-13T05:05:04.571Z,96364.13
2023-01-13T05:07:32.923Z,96354.22
2023-01-13T05:10:00.835Z,96366.13
2023-01-13T05:12:47.236Z,96366.03
2023-01-13T05:15:34.331Z,96358.19
2023-01-13T05:18:02.761Z,96360.47
2023-01-13T05:20:30.494Z,96365.50
2023-01-13T05:23:15.618Z,96355.25
2023-01-13T05:25:44.815Z,96355.31
2023-01-13T05:28:13.894Z,96359.44
2023-01-13T05:30:43.600Z,96353.75
2023-01-13T05:33:12.621Z,96344.81
2023-01-13T05:35:41.548Z,96334.88
2023-01-13T05:38:10.165Z,96347.09
2023-01-13T05:40:59.335Z,96343.63
2023-01-13T05:43:29.274Z,96356.63
2023-01-13T05:45:59.825Z,96351.31
2023-01-13T05:48:29.949Z,96346.44
2023-01-13T05:50:58.410Z,96350.47
2023-01-13T05:53:27.219Z,96344.69
2023-01-13T05:55:55.780Z,96345.88
2023-01-13T05:58:25.488Z,96341.84
2023-01-13T06:00:59.929Z,96340.66
2023-01-13T06:03:27.946Z,96357.75
2023-01-13T06:05:58.778Z,96355.34
2023-01-13T06:08:27.280Z,96348.03
2023-01-13T06:10:55.164Z,96344.19
2023-01-13T06:13:25.333Z,96355.47
2023-01-13T06:15:57.139Z,96344.34
2023-01-13T06:18:25.297Z,96347.22
2023-01-13T06:20:53.088Z,96358.22
2023-01-13T06:23:21.165Z,96343.97
2023-01-13T06:25:56.586Z,96348.03
2023-01-13T06:28:24.549Z,96345.47
2023-01-13T06:30:58.783Z,96338.53
2023-01-13T06:33:31.282Z,96344.75
2023-01-13T06:36:02.706Z,96342.09
2023-01-13T06:38:32.898Z,96356.91
2023-01-13T06:41:00.607Z,96351.50
2023-01-13T06:43:27.515Z,96331.91
2023-01-13T06:45:57.790Z,96350.09
2023-01-13T06:48:29.683Z,96352.09
2023-01-13T06:50:57.551Z,96348.94
2023-01-13T06:53:25.429Z,96342.16
2023-01-13T06:55:53.176Z,96346.41
2023-01-13T06:58:20.959Z,96338.84
2023-01-13T07:00:51.294Z,96340.16
2023-01-13T07:03:21.415Z,96344.72
2023-01-13T07:05:53.409Z,96346.72
2023-01-13T07:08:21.642Z,96344.50
2023-01-13T07:10:49.406Z,96350.88
2023-01-13T07:13:34.443Z,96354.06
2023-01-13T07:16:04.940Z,96351.78
2023-01-13T07:18:35.430Z,96358.94
2023-01-13T07:21:05.874Z,96345.63
2023-01-13T07:23:35.759Z,96344.88
2023-01-13T07:26:03.988Z,96346.50
2023-01-13T07:28:32.423Z,96343.19
2023-01-13T07:31:00.779Z,96360.50
2023-01-13T07:33:29.229Z,96347.41
2023-01-13T07:36:00.067Z,96342.34
2023-01-13T07:38:28.556Z,96353.63
2023-01-13T07:40:57.442Z,96373.78
2023-01-13T07:43:33.067Z,96356.81
2023-01-13T07:46:02.908Z,96355.16
2023-01-13T07:48:31.298Z,96364.34
2023-01-13T07:51:04.274Z,96372.75
2023-01-13T07:53:32.691Z,96383.13
2023-01-13T07:56:01.479Z,96373.50
2023-01-13T07:58:30.642Z,96373.84
2023-01-13T08:00:59.008Z,96376.09
2023-01-13T08:03:28.053Z,96368.16
2023-01-13T08:05:55.900Z,96375.13
2023-01-13T08:08:25.085Z,96372.31
2023-01-13T08:10:52.886Z,96360.63
2023-01-13T08:13:21.237Z,96374.75
2023-01-13T08:15:50.901Z,96365.34
2023-01-13T08:18:21.188Z,96369.03
2023-01-13T08:20:49.862Z,96365.78
2023-01-13T08:23:17.806Z,96361.75
2023-01-13T08:25:47.388Z,96375.25
2023-01-13T08:28:16.051Z,96378.34
2023-01-13T08:30:44.440Z,96368.41
2023-01-13T08:33:13.882Z,96382.19
2023-01-13T08:35:42.896Z,96392.78
2023-01-13T08:38:10.650Z,96386.63
2023-01-13T08:40:40.332Z,96388.22
2023-01-13T08:43:09.444Z,96389.94
2023-01-13T08:45:37.358Z,96383.50
2023-01-13T08:48:06.025Z,96387.41
2023-01-13T08:50:34.024Z,96389.72
2023-01-13T08:53:01.777Z,96395.56
2023-01-13T08:55:29.635Z,96404.72
2023-01-13T08:58:14.311Z,96390.59
2023-01-13T09:00:45.050Z,96404.97
2023-01-13T09:03:12.885Z,96429.56
2023-01-13T09:05:40.704Z,96416.53
2023-01-13T09:08:08.554Z,96408.78
2023-01-13T09:10:36.936Z,96409.41
2023-01-13T09:13:12.602Z,96415.88
2023-01-13T09:15:42.151Z,96404.19
2023-01-13T09:18:11.542Z,96408.25
2023-01-13T09:20:40.075Z,96415.50
2023-01-13T09:23:10.729Z,96415.06
2023-01-13T09:25:38.930Z,96425.13
2023-01-13T09:28:08.482Z,96415.31
2023-01-13T09:30:37.916Z,96418.13
2023-01-13T09:33:23.687Z,96405.03
2023-01-13T09:35:53.134Z,96436.03
2023-01-13T09:38:20.964Z,96436.59
2023-01-13T09:40:50.729Z,96429.84
2023-01-13T09:43:40.575Z,96432.00
2023-01-13T09:46:36.609Z,96413.50
2023-01-13T09:49:05.418Z,96413.66
2023-01-13T09:51:41.640Z,96414.91
2023-01-13T09:54:16.200Z,96406.03
2023-01-13T09:56:44.215Z,96428.84
2023-01-13T09:59:13.231Z,96434.28
2023-01-13T10:01:51.774Z,96438.75
2023-01-13T10:04:19.827Z,96419.34
2023-01-13T10:06:54.129Z,96429.56
2023-01-13T10:09:28.196Z,96420.97
2023-01-13T10:12:16.409Z,96426.25
2023-01-13T10:14:56.175Z,96431.84
2023-01-13T10:17:31.653Z,96431.53
2023-01-13T10:20:13.228Z,96413.22
2023-01-13T10:23:01.912Z,96417.97
2023-01-13T10:25:42.911Z,96423.09
2023-01-13T10:28:12.706Z,96436.03
2023-01-13T10:30:42.165Z,96428.81
2023-01-13T10:33:17.581Z,96445.31
2023-01-13T10:35:57.823Z,96460.31
2023-01-13T10:38:30.245Z,96452.50
2023-01-13T10:40:59.972Z,96438.91
2023-01-13T10:43:29.211Z,96456.66
2023-01-13T10:46:04.000Z,96444.06
2023-01-13T10:48:38.672Z,96450.47
2023-01-13T10:51:25.229Z,96436.75
2023-01-13T10:54:00.508Z,96439.03
2023-01-13T10:56:31.279Z,96454.09
2023-01-13T10:59:17.049Z,96458.63
2023-01-13T11:01:58.238Z,96461.94
2023-01-13T11:04:32.324Z,96460.19
2023-01-13T11:07:04.652Z,96462.56
2023-01-13T11:09:34.150Z,96469.38
2023-01-13T11:12:03.071Z,96472.91
2023-01-13T11:14:39.523Z,96479.00
2023-01-13T11:17:38.530Z,96485.28
2023-01-13T11:20:18.576Z,96477.69
2023-01-13T11:22:49.013Z,96473.13
2023-01-13T11:25:24.158Z,96477.06
2023-01-13T11:27:59.052Z,96469.25
2023-01-13T11:30:35.432Z,96484.47
2023-01-13T11:33:17.972Z,96494.91
2023-01-13T11:35:49.914Z,96489.13
2023-01-13T11:38:28.458Z,96488.00
2023-01-13T11:41:04.858Z,96485.66
2023-01-13T11:43:39.425Z,96488.06
2023-01-13T11:46:07.663Z,96488.16
2023-01-13T11:48:44.031Z,96482.00
2023-01-13T11:51:26.298Z,96484.97
2023-01-13T11:54:01.246Z,96483.25
2023-01-13T11:56:53.215Z,96467.41
2023-01-13T11:59:55.938Z,96481.78
2023-01-13T12:02:40.727Z,96485.56
2023-01-13T12:05:20.231Z,96478.22
2023-01-13T12:07:59.981Z,96464.00
2023-01-13T12:10:43.846Z,96472.78
2023-01-13T12:13:24.320Z,96425.47
2023-01-13T12:16:24.579Z,96449.72
2023-01-13T12:19:28.035Z,96443.41
2023-01-13T12:22:12.632Z,96454.34
2023-01-13T12:24:49.373Z,96450.94
2023-01-13T12:27:23.696Z,96461.47
2023-01-13T12:29:58.310Z,96471.91
2023-01-13T12:32:34.493Z,96466.28
2023-01-13T12:35:18.516Z,96482.00
2023-01-13T12:37:54.045Z,96473.19
2023-01-13T12:40:38.867Z,96468.97
2023-01-13T12:43:34.210Z,96466.59
2023-01-13T12:46:53.196Z,96471.47
2023-01-13T12:49:28.625Z,96482.09
2023-01-13T12:52:13.838Z,96486.28
2023-01-13T12:55:13.696Z,96497.63
2023-01-13T12:58:14.178Z,96498.78
2023-01-13T13:00:58.065Z,96481.63
2023-01-13T13:03:32.243Z,96489.16
2023-01-13T13:06:07.387Z,96492.81
2023-01-13T13:09:03.672Z,96491.25
2023-01-13T13:12:02.125Z,96479.25
2023-01-13T13:15:04.636Z,96485.22
2023-01-13T13:17:45.420Z,96499.59
2023-01-13T13:20:53.865Z,96487.22
2023-01-13T13:23:47.978Z,96489.47
2023-01-13T13:26:25.087Z,96487.72
2023-01-13T13:29:29.826Z,96481.22
2023-01-13T13:32:19.249Z,96492.59
2023-01-13T13:34:53.941Z,96485.84
2023-01-13T13:38:09.621Z,96493.09
2023-01-13T13:41:03.214Z,96488.63
2023-01-13T13:43:56.215Z,96505.13
2023-01-13T13:46:44.083Z,96502.00
2023-01-13T13:49:12.148Z,96489.88
2023-01-13T13:51:45.188Z,96505.09
2023-01-13T13:54:16.466Z,96495.69
2023-01-13T13:56:47.950Z,96494.56
2023-01-13T13:59:19.995Z,96506.56
2023-01-13T14:01:51.785Z,96525.38
2023-01-13T14:04:23.439Z,96520.94
2023-01-13T14:06:54.528Z,96529.09
2023-01-13T14:09:23.525Z,96532.78
2023-01-13T14:12:01.528Z,96522.03
2023-01-13T14:14:30.043Z,96539.22
2023-01-13T14:16:58.728Z,96527.50
2023-01-13T14:19:32.571Z,96535.31
2023-01-13T14:22:02.238Z,96541.75
2023-01-13T14:24:31.113Z,96538.00
2023-01-13T14:27:11.489Z,96542.19
2023-01-13T14:29:39.655Z,96546.47
2023-01-13T14:32:08.827Z,96543.69
2023-01-13T14:34:37.799Z,96561.78
2023-01-13T14:37:24.875Z,96557.34
2023-01-13T14:39:52.683Z,96563.88
2023-01-13T14:42:22.537Z,96562.28
2023-01-13T14:44:52.093Z,96579.63
2023-01-13T14:47:23.898Z,96583.50
2023-01-13T14:49:58.982Z,96570.78
2023-01-13T14:52:29.165Z,96586.91
2023-01-13T14:55:25.481Z,96586.56
2023-01-13T14:57:54.843Z,96584.66
2023-01-13T15:00:24.970Z,96584.44
2023-01-13T15:03:08.446Z,96593.69
2023-01-13T15:05:47.578Z,96607.72
2023-01-13T15:08:37.979Z,96610.91
2023-01-13T15:11:08.228Z,96624.31
2023-01-13T15:13:52.411Z,96630.22
2023-01-13T15:16:25.035Z,96625.94
2023-01-13T15:18:53.615Z,96621.94
2023-01-13T15:21:22.043Z,96613.00
2023-01-13T15:23:50.210Z,96611.59
2023-01-13T15:26:21.382Z,96631.22
2023-01-13T15:28:51.611Z,96629.81
2023-01-13T15:31:20.322Z,96615.78
2023-01-13T15:33:48.559Z,96643.16
2023-01-13T15:36:24.211Z,96644.31
2023-01-13T15:38:52.432Z,96647.88
2023-01-13T15:41:41.909Z,96655.72
2023-01-13T15:44:31.322Z,96677.63
2023-01-13T15:47:02.110Z,96668.78
2023-01-13T15:49:36.223Z,96691.41
2023-01-13T15:52:05.498Z,96698.59
2023-01-13T15:54:33.291Z,96706.63
2023-01-13T15:57:01.108Z,96717.69
2023-01-13T15:59:30.273Z,96718.53
2023-01-13T16:01:58.121Z,96717.69
2023-01-13T16:04:25.973Z,96733.63
2023-01-13T16:06:53.808Z,96727.66
2023-01-13T16:09:21.699Z,96739.75
2023-01-13T16:11:49.505Z,96736.47
2023-01-13T16:14:17.281Z,96750.75
2023-01-13T16:16:46.461Z,96736.44
2023-01-13T16:19:14.610Z,96759.34
2023-01-13T16:21:42.468Z,96747.69
2023-01-13T16:24:10.348Z,96754.00
2023-01-13T16:26:38.981Z,96767.03
2023-01-13T16:29:07.831Z,96771.53
2023-01-13T16:31:36.171Z,96764.78
2023-01-13T16:34:06.308Z,96761.28
2023-01-13T16:36:36.777Z,96766.44
2023-01-13T16:39:06.154Z,96772.41
2023-01-13T16:41:34.790Z,96774.84
2023-01-13T16:44:06.088Z,96782.63
2023-01-13T16:46:34.466Z,96775.88
2023-01-13T16:49:05.982Z,96771.78
2023-01-13T16:51:34.264Z,96777.13
2023-01-13T16:54:02.332Z,96769.84
2023-01-13T16:56:32.326Z,96775.19
2023-01-13T16:59:03.144Z,96774.59
2023-01-13T17:01:32.410Z,96780.34
2023-01-13T17:04:00.840Z,96767.78
2023-01-13T17:06:33.956Z,96781.34
2023-01-13T17:09:03.167Z,96769.63
2023-01-13T17:11:31.044Z,96780.25
2023-01-13T17:13:58.909Z,96789.00
2023-01-13T17:16:28.240Z,96813.16
2023-01-13T17:18:56.577Z,96820.53
2023-01-13T17:21:24.648Z,96814.41
2023-01-13T17:23:53.814Z,96819.81
2023-01-13T17:26:33.795Z,96818.72
2023-01-13T17:29:02.601Z,96810.16
2023-01-13T17:31:31.195Z,96804.22
2023-01-13T17:33:59.297Z,96815.66
2023-01-13T17:36:27.162Z,96823.44
2023-01-13T17:38:57.535Z,96835.50
2023-01-13T17:41:26.227Z,96838.75
2023-01-13T17:43:54.228Z,96839.56
2023-01-13T17:46:23.106Z,96833.47
2023-01-13T17:48:52.701Z,96846.91
2023-01-13T17:51:22.502Z,96856.09
2023-01-13T17:53:50.471Z,96852.44
2023-01-13T17:56:19.770Z,96846.91
2023-01-13T17:58:47.856Z,96846.06
2023-01-13T18:01:18.355Z,96845.13
2023-01-13T18:03:46.906Z,96851.25
2023-01-13T18:06:17.480Z,96860.72
2023-01-13T18:08:45.849Z,96859.13
2023-01-13T18:11:14.287Z,96854.00
2023-01-13T18:13:43.812Z,96841.53
2023-01-13T18:16:14.059Z,96847.25
2023-01-13T18:18:43.822Z,96862.63
2023-01-13T18:21:35.798Z,96870.19
2023-01-13T18:24:21.061Z,96858.94
2023-01-13T18:27:06.271Z,96864.25
2023-01-13T18:29:35.353Z,96873.91
2023-01-13T18:32:03.204Z,96870.44
2023-01-13T18:34:30.953Z,96873.47
2023-01-13T18:36:58.752Z,96869.16
2023-01-13T18:39:26.765Z,96875.84
2023-01-13T18:42:11.796Z,96880.53
2023-01-13T18:44:40.950Z,96893.63
2023-01-13T18:47:09.058Z,96901.13
2023-01-13T18:49:37.016Z,96891.38
2023-01-13T18:52:05.172Z,96900.78
2023-01-13T18:54:33.037Z,96899.69
2023-01-13T18:57:02.792Z,96913.00
2023-01-13T18:59:31.020Z,96909.00
2023-01-13T19:02:00.393Z,96915.38
2023-01-13T19:04:28.522Z,96918.47
2023-01-13T19:07:00.871Z,96909.66
2023-01-13T19:09:29.768Z,96908.59
2023-01-13T19:11:59.170Z,96928.66
2023-01-13T19:14:37.667Z,96939.28
2023-01-13T19:17:09.776Z,96930.47
2023-01-13T19:19:42.212Z,96938.66
2023-01-13T19:22:10.793Z,96933.38
2023-01-13T19:24:41.833Z,96926.25
2023-01-13T19:27:09.978Z,96933.19
2023-01-13T19:29:37.835Z,96943.84
2023-01-13T19:32:15.623Z,96944.28
2023-01-13T19:34:44.140Z,96956.59
2023-01-13T19:37:12.159Z,96950.28
2023-01-13T19:39:40.240Z,96961.75
2023-01-13T19:42:25.900Z,96958.47
2023-01-13T19:45:11.137Z,96939.22
2023-01-13T19:47:40.944Z,96969.38
2023-01-13T19:50:10.745Z,96966.66
2023-01-13T19:52:38.536Z,96979.19
2023-01-13T19:55:07.279Z,96964.66
2023-01-13T19:57:35.098Z,96971.59
2023-01-13T20:00:03.970Z,96972.47
2023-01-13T20:02:32.409Z,96984.56
2023-01-13T20:05:05.613Z,96986.56
2023-01-13T20:07:35.141Z,96985.13
2023-01-13T20:10:03.337Z,96992.28
2023-01-13T20:12:31.410Z,96997.78
2023-01-13T20:14:59.151Z,97004.66
2023-01-13T20:17:26.980Z,97016.66
2023-01-13T20:19:54.784Z,97024.81
2023-01-13T20:22:24.087Z,97008.16
2023-01-13T20:24:55.131Z,97018.25
2023-01-13T20:27:24.818Z,97022.13
2023-01-13T20:29:52.766Z,97028.13
2023-01-13T20:32:20.511Z,97035.53
2023-01-13T20:34:48.391Z,97042.81
2023-01-13T20:37:16.212Z,97044.09
2023-01-13T20:39:45.789Z,97051.44
2023-01-13T20:42:34.241Z,97045.69
2023-01-13T20:45:02.327Z,97049.22
2023-01-13T20:47:31.210Z,97032.69
2023-01-13T20:50:00.003Z,97042.00
2023-01-13T20:52:28.940Z,97040.09
2023-01-13T20:54:58.022Z,97039.63
2023-01-13T20:57:25.860Z,97033.28
2023-01-13T20:59:53.655Z,97035.22
2023-01-13T21:02:23.212Z,97031.34
2023-01-13T21:04:50.982Z,97037.94
2023-01-13T21:07:19.059Z,97045.72
2023-01-13T21:09:46.940Z,97042.03
2023-01-13T21:12:35.317Z,97029.28
2023-01-13T21:15:16.995Z,97041.22
2023-01-13T21:18:02.381Z,97031.59
2023-01-13T21:20:33.053Z,97025.94
2023-01-13T21:23:02.581Z,97014.84
2023-01-13T21:25:31.160Z,97034.19
2023-01-13T21:28:05.485Z,97037.00
2023-01-13T21:30:33.513Z,97037.22
2023-01-13T21:33:03.839Z,97044.00
2023-01-13T21:35:31.752Z,97033.97
2023-01-13T21:37:59.769Z,97027.38
2023-01-13T21:40:27.638Z,97043.19
2023-01-13T21:43:12.988Z,97048.31
2023-01-13T21:45:59.743Z,97054.25
2023-01-13T21:48:27.919Z,97072.88
2023-01-13T21:50:55.733Z,97070.38
2023-01-13T21:53:23.556Z,97082.81
2023-01-13T21:55:52.329Z,97048.97
2023-01-13T21:58:20.521Z,97064.75
2023-01-13T22:00:50.030Z,97080.63
2023-01-13T22:03:18.809Z,97077.09
2023-01-13T22:05:47.195Z,97082.94
2023-01-13T22:08:14.976Z,97080.81
2023-01-13T22:10:57.273Z,97075.66
2023-01-13T22:13:43.197Z,97069.50
2023-01-13T22:16:12.473Z,97089.91
2023-01-13T22:18:40.264Z,97098.31
2023-01-13T22:21:08.096Z,97107.22
2023-01-13T22:23:35.913Z,97106.03
2023-01-13T22:26:04.282Z,97087.84
2023-01-13T22:28:34.311Z,97121.19
2023-01-13T22:31:02.894Z,97127.16
2023-01-13T22:33:32.098Z,97121.78
2023-01-13T22:36:00.146Z,97123.34
2023-01-13T22:38:27.933Z,97108.72
2023-01-13T22:40:59.066Z,97098.69
2023-01-13T22:43:27.992Z,97122.44
2023-01-13T22:45:59.679Z,97137.03
2023-01-13T22:48:28.550Z,97126.28
2023-01-13T22:50:57.771Z,97123.13
2023-01-13T22:53:25.609Z,97121.91
2023-01-13T22:55:56.599Z,97115.69
2023-01-13T22:58:24.726Z,97113.34
2023-01-13T23:00:52.701Z,97111.13
2023-01-13T23:03:20.624Z,97105.06
2023-01-13T23:05:48.459Z,97105.91
2023-01-13T23:08:17.591Z,97103.63
2023-01-13T23:10:45.394Z,97105.06
2023-01-13T23:13:13.187Z,97104.56
2023-01-13T23:15:41.073Z,97087.69
2023-01-13T23:18:08.849Z,97093.56
2023-01-13T23:20:36.865Z,97082.72
2023-01-13T23:23:04.940Z,97084.72
2023-01-13T23:25:34.202Z,97089.22
2023-01-13T23:28:02.014Z,97082.09
2023-01-13T23:30:30.141Z,97086.09
2023-01-13T23:32:58.016Z,97082.25
2023-01-13T23:35:25.756Z,97091.03
2023-01-13T23:37:53.725Z,97097.25
2023-01-13T23:40:21.572Z,97098.53
2023-01-13T23:42:50.755Z,97102.38
2023-01-13T23:45:18.475Z,97107.31
2023-01-13T23:47:46.223Z,97099.19
2023-01-13T23:50:14.056Z,97096.38
2023-01-13T23:52:41.911Z,97088.31
2023-01-13T23:55:10.612Z,97090.16
2023-01-13T23:57:40.712Z,97099.75
